sensor_id;sensor_type;location;lat;lon;timestamp;P1;durP1;ratioP1;P2;durP2;ratioP2
55328;SDS011;41205;44.264;19.884;2023-06-24T00:01:49;12.27;;;5.53;;
55328;SDS011;41205;44.264;19.884;2023-06-24T00:04:15;9.63;;;4.97;;
55328;SDS011;41205;44.264;19.884;2023-06-24T00:06:41;7.10;;;5.25;;
55328;SDS011;41205;44.264;19.884;2023-06-24T00:09:07;11.63;;;5.07;;
55328;SDS011;41205;44.264;19.884;2023-06-24T00:11:33;11.82;;;5.10;;
55328;SDS011;41205;44.264;19.884;2023-06-24T00:13:59;7.43;;;4.50;;
55328;SDS011;41205;44.264;19.884;2023-06-24T00:16:24;9.15;;;4.78;;
55328;SDS011;41205;44.264;19.884;2023-06-24T00:18:53;12.73;;;4.70;;
55328;SDS011;41205;44.264;19.884;2023-06-24T00:23:57;12.43;;;5.45;;
55328;SDS011;41205;44.264;19.884;2023-06-24T00:26:24;10.80;;;5.18;;
55328;SDS011;41205;44.264;19.884;2023-06-24T00:28:51;10.70;;;5.03;;
55328;SDS011;41205;44.264;19.884;2023-06-24T00:31:17;6.82;;;4.63;;
55328;SDS011;41205;44.264;19.884;2023-06-24T00:33:43;6.50;;;4.38;;
55328;SDS011;41205;44.264;19.884;2023-06-24T00:36:09;8.02;;;3.97;;
55328;SDS011;41205;44.264;19.884;2023-06-24T00:38:36;8.02;;;4.88;;
55328;SDS011;41205;44.264;19.884;2023-06-24T00:41:03;6.95;;;4.05;;
55328;SDS011;41205;44.264;19.884;2023-06-24T00:43:29;7.95;;;4.43;;
55328;SDS011;41205;44.264;19.884;2023-06-24T00:45:58;8.40;;;4.78;;
55328;SDS011;41205;44.264;19.884;2023-06-24T00:48:24;9.07;;;5.50;;
55328;SDS011;41205;44.264;19.884;2023-06-24T00:50:50;7.45;;;4.47;;
55328;SDS011;41205;44.264;19.884;2023-06-24T00:53:17;9.68;;;4.50;;
55328;SDS011;41205;44.264;19.884;2023-06-24T00:55:44;9.85;;;4.50;;
55328;SDS011;41205;44.264;19.884;2023-06-24T00:58:10;8.30;;;4.80;;
55328;SDS011;41205;44.264;19.884;2023-06-24T01:00:41;8.93;;;4.43;;
55328;SDS011;41205;44.264;19.884;2023-06-24T01:03:07;9.45;;;4.88;;
55328;SDS011;41205;44.264;19.884;2023-06-24T01:05:33;6.05;;;4.28;;
55328;SDS011;41205;44.264;19.884;2023-06-24T01:08:00;7.35;;;4.38;;
55328;SDS011;41205;44.264;19.884;2023-06-24T01:10:27;7.68;;;4.25;;
55328;SDS011;41205;44.264;19.884;2023-06-24T01:12:53;9.95;;;4.65;;
55328;SDS011;41205;44.264;19.884;2023-06-24T01:15:19;8.50;;;4.93;;
55328;SDS011;41205;44.264;19.884;2023-06-24T01:17:49;10.25;;;4.30;;
55328;SDS011;41205;44.264;19.884;2023-06-24T01:36:40;7.15;;;4.70;;
55328;SDS011;41205;44.264;19.884;2023-06-24T01:39:08;7.90;;;5.00;;
55328;SDS011;41205;44.264;19.884;2023-06-24T01:41:40;6.25;;;4.53;;
55328;SDS011;41205;44.264;19.884;2023-06-24T01:44:07;9.50;;;4.70;;
55328;SDS011;41205;44.264;19.884;2023-06-24T01:46:35;8.15;;;4.80;;
55328;SDS011;41205;44.264;19.884;2023-06-24T01:49:02;10.35;;;4.53;;
55328;SDS011;41205;44.264;19.884;2023-06-24T01:51:31;6.45;;;4.43;;
55328;SDS011;41205;44.264;19.884;2023-06-24T01:54:00;9.90;;;4.85;;
55328;SDS011;41205;44.264;19.884;2023-06-24T01:56:26;7.72;;;4.85;;
55328;SDS011;41205;44.264;19.884;2023-06-24T01:58:53;8.65;;;4.63;;
55328;SDS011;41205;44.264;19.884;2023-06-24T02:01:20;6.70;;;4.45;;
55328;SDS011;41205;44.264;19.884;2023-06-24T02:03:46;7.25;;;4.50;;
55328;SDS011;41205;44.264;19.884;2023-06-24T02:06:14;6.78;;;4.65;;
55328;SDS011;41205;44.264;19.884;2023-06-24T02:08:41;5.85;;;3.72;;
55328;SDS011;41205;44.264;19.884;2023-06-24T02:11:08;8.02;;;4.78;;
55328;SDS011;41205;44.264;19.884;2023-06-24T02:13:35;12.07;;;5.38;;
55328;SDS011;41205;44.264;19.884;2023-06-24T02:16:01;9.18;;;4.85;;
55328;SDS011;41205;44.264;19.884;2023-06-24T02:18:28;7.40;;;3.85;;
55328;SDS011;41205;44.264;19.884;2023-06-24T02:20:55;7.53;;;4.40;;
55328;SDS011;41205;44.264;19.884;2023-06-24T02:23:22;13.48;;;4.70;;
55328;SDS011;41205;44.264;19.884;2023-06-24T02:25:49;7.35;;;4.47;;
55328;SDS011;41205;44.264;19.884;2023-06-24T02:28:15;11.20;;;4.90;;
55328;SDS011;41205;44.264;19.884;2023-06-24T02:30:42;7.03;;;4.38;;
55328;SDS011;41205;44.264;19.884;2023-06-24T02:33:09;6.68;;;4.53;;
55328;SDS011;41205;44.264;19.884;2023-06-24T02:35:37;8.63;;;4.20;;
55328;SDS011;41205;44.264;19.884;2023-06-24T02:38:03;7.22;;;4.47;;
55328;SDS011;41205;44.264;19.884;2023-06-24T02:40:29;7.85;;;4.43;;
55328;SDS011;41205;44.264;19.884;2023-06-24T02:42:56;8.45;;;4.75;;
55328;SDS011;41205;44.264;19.884;2023-06-24T02:45:23;10.70;;;4.55;;
55328;SDS011;41205;44.264;19.884;2023-06-24T02:47:49;10.95;;;5.10;;
55328;SDS011;41205;44.264;19.884;2023-06-24T02:50:16;8.55;;;4.55;;
55328;SDS011;41205;44.264;19.884;2023-06-24T02:52:42;11.70;;;4.97;;
55328;SDS011;41205;44.264;19.884;2023-06-24T02:55:08;7.47;;;4.43;;
55328;SDS011;41205;44.264;19.884;2023-06-24T02:57:34;8.90;;;4.70;;
55328;SDS011;41205;44.264;19.884;2023-06-24T03:00:02;10.52;;;4.20;;
55328;SDS011;41205;44.264;19.884;2023-06-24T03:02:30;10.23;;;4.68;;
55328;SDS011;41205;44.264;19.884;2023-06-24T03:04:57;7.57;;;4.32;;
55328;SDS011;41205;44.264;19.884;2023-06-24T03:07:27;7.15;;;4.30;;
55328;SDS011;41205;44.264;19.884;2023-06-24T03:09:53;9.07;;;5.07;;
55328;SDS011;41205;44.264;19.884;2023-06-24T03:12:19;6.20;;;4.47;;
55328;SDS011;41205;44.264;19.884;2023-06-24T03:14:44;7.20;;;4.90;;
55328;SDS011;41205;44.264;19.884;2023-06-24T03:17:10;6.32;;;4.72;;
55328;SDS011;41205;44.264;19.884;2023-06-24T03:19:36;7.03;;;4.93;;
55328;SDS011;41205;44.264;19.884;2023-06-24T03:22:05;9.27;;;4.85;;
55328;SDS011;41205;44.264;19.884;2023-06-24T03:24:31;8.52;;;4.70;;
55328;SDS011;41205;44.264;19.884;2023-06-24T03:26:56;8.25;;;4.32;;
55328;SDS011;41205;44.264;19.884;2023-06-24T03:29:25;6.47;;;4.13;;
55328;SDS011;41205;44.264;19.884;2023-06-24T03:31:51;8.65;;;4.95;;
55328;SDS011;41205;44.264;19.884;2023-06-24T03:34:17;11.40;;;5.20;;
55328;SDS011;41205;44.264;19.884;2023-06-24T03:36:43;7.47;;;4.68;;
55328;SDS011;41205;44.264;19.884;2023-06-24T03:39:09;8.38;;;4.88;;
55328;SDS011;41205;44.264;19.884;2023-06-24T03:41:34;7.18;;;4.05;;
55328;SDS011;41205;44.264;19.884;2023-06-24T03:44:00;8.48;;;4.38;;
55328;SDS011;41205;44.264;19.884;2023-06-24T03:46:26;8.55;;;4.60;;
55328;SDS011;41205;44.264;19.884;2023-06-24T03:48:57;11.38;;;4.72;;
55328;SDS011;41205;44.264;19.884;2023-06-24T03:51:23;6.97;;;4.82;;
55328;SDS011;41205;44.264;19.884;2023-06-24T03:53:49;10.18;;;5.55;;
55328;SDS011;41205;44.264;19.884;2023-06-24T03:56:15;8.57;;;5.78;;
55328;SDS011;41205;44.264;19.884;2023-06-24T03:58:41;9.27;;;4.90;;
55328;SDS011;41205;44.264;19.884;2023-06-24T04:01:06;7.68;;;5.35;;
55328;SDS011;41205;44.264;19.884;2023-06-24T04:03:34;13.43;;;5.47;;
55328;SDS011;41205;44.264;19.884;2023-06-24T04:06:00;8.77;;;4.05;;
55328;SDS011;41205;44.264;19.884;2023-06-24T04:08:26;9.68;;;4.40;;
55328;SDS011;41205;44.264;19.884;2023-06-24T04:10:56;9.23;;;5.28;;
55328;SDS011;41205;44.264;19.884;2023-06-24T04:13:24;8.52;;;5.07;;
55328;SDS011;41205;44.264;19.884;2023-06-24T04:15:49;10.73;;;5.07;;
55328;SDS011;41205;44.264;19.884;2023-06-24T04:18:15;12.65;;;4.80;;
55328;SDS011;41205;44.264;19.884;2023-06-24T04:20:41;7.15;;;4.95;;
55328;SDS011;41205;44.264;19.884;2023-06-24T04:23:06;7.43;;;5.00;;
55328;SDS011;41205;44.264;19.884;2023-06-24T04:25:34;7.13;;;5.35;;
55328;SDS011;41205;44.264;19.884;2023-06-24T04:28:00;11.32;;;6.07;;
55328;SDS011;41205;44.264;19.884;2023-06-24T04:30:26;8.40;;;5.47;;
55328;SDS011;41205;44.264;19.884;2023-06-24T04:32:52;9.25;;;6.07;;
55328;SDS011;41205;44.264;19.884;2023-06-24T04:35:18;9.85;;;6.03;;
55328;SDS011;41205;44.264;19.884;2023-06-24T04:37:43;6.20;;;4.93;;
55328;SDS011;41205;44.264;19.884;2023-06-24T04:40:09;9.88;;;6.05;;
55328;SDS011;41205;44.264;19.884;2023-06-24T04:42:35;12.05;;;5.53;;
55328;SDS011;41205;44.264;19.884;2023-06-24T04:45:01;9.75;;;5.70;;
55328;SDS011;41205;44.264;19.884;2023-06-24T04:47:30;8.73;;;5.65;;
55328;SDS011;41205;44.264;19.884;2023-06-24T04:49:56;13.32;;;6.57;;
55328;SDS011;41205;44.264;19.884;2023-06-24T04:52:23;8.57;;;5.68;;
55328;SDS011;41205;44.264;19.884;2023-06-24T04:54:49;8.25;;;6.07;;
55328;SDS011;41205;44.264;19.884;2023-06-24T04:57:26;10.10;;;6.13;;
55328;SDS011;41205;44.264;19.884;2023-06-24T04:59:55;8.93;;;6.65;;
55328;SDS011;41205;44.264;19.884;2023-06-24T05:02:22;8.15;;;5.25;;
55328;SDS011;41205;44.264;19.884;2023-06-24T05:04:48;9.88;;;6.97;;
55328;SDS011;41205;44.264;19.884;2023-06-24T05:07:14;8.23;;;7.05;;
55328;SDS011;41205;44.264;19.884;2023-06-24T05:09:40;8.98;;;7.05;;
55328;SDS011;41205;44.264;19.884;2023-06-24T05:12:06;11.82;;;7.93;;
55328;SDS011;41205;44.264;19.884;2023-06-24T05:14:34;7.03;;;6.40;;
55328;SDS011;41205;44.264;19.884;2023-06-24T05:17:00;9.85;;;7.45;;
55328;SDS011;41205;44.264;19.884;2023-06-24T05:19:26;9.63;;;7.22;;
55328;SDS011;41205;44.264;19.884;2023-06-24T05:21:52;9.13;;;7.90;;
55328;SDS011;41205;44.264;19.884;2023-06-24T05:24:17;10.18;;;7.28;;
55328;SDS011;41205;44.264;19.884;2023-06-24T05:26:44;11.38;;;8.90;;
55328;SDS011;41205;44.264;19.884;2023-06-24T05:29:13;8.80;;;7.88;;
55328;SDS011;41205;44.264;19.884;2023-06-24T05:31:39;18.48;;;8.25;;
55328;SDS011;41205;44.264;19.884;2023-06-24T05:34:06;11.20;;;8.32;;
55328;SDS011;41205;44.264;19.884;2023-06-24T05:36:32;9.65;;;8.52;;
55328;SDS011;41205;44.264;19.884;2023-06-24T05:38:58;9.35;;;7.40;;
55328;SDS011;41205;44.264;19.884;2023-06-24T05:41:24;10.07;;;7.88;;
55328;SDS011;41205;44.264;19.884;2023-06-24T05:43:59;11.60;;;7.53;;
55328;SDS011;41205;44.264;19.884;2023-06-24T05:46:30;9.73;;;7.95;;
55328;SDS011;41205;44.264;19.884;2023-06-24T05:48:56;12.75;;;8.05;;
55328;SDS011;41205;44.264;19.884;2023-06-24T05:51:21;9.70;;;7.82;;
55328;SDS011;41205;44.264;19.884;2023-06-24T05:53:47;15.68;;;9.77;;
55328;SDS011;41205;44.264;19.884;2023-06-24T05:56:13;9.18;;;7.78;;
55328;SDS011;41205;44.264;19.884;2023-06-24T05:58:38;10.00;;;8.93;;
55328;SDS011;41205;44.264;19.884;2023-06-24T06:01:04;11.55;;;9.05;;
55328;SDS011;41205;44.264;19.884;2023-06-24T06:03:31;16.00;;;10.93;;
55328;SDS011;41205;44.264;19.884;2023-06-24T06:05:56;10.07;;;9.07;;
55328;SDS011;41205;44.264;19.884;2023-06-24T06:08:22;12.52;;;11.23;;
55328;SDS011;41205;44.264;19.884;2023-06-24T06:10:48;12.20;;;10.95;;
55328;SDS011;41205;44.264;19.884;2023-06-24T06:13:13;12.93;;;10.10;;
55328;SDS011;41205;44.264;19.884;2023-06-24T06:15:39;12.88;;;11.15;;
55328;SDS011;41205;44.264;19.884;2023-06-24T06:18:05;19.40;;;12.90;;
55328;SDS011;41205;44.264;19.884;2023-06-24T06:20:30;13.63;;;11.85;;
55328;SDS011;41205;44.264;19.884;2023-06-24T06:22:56;12.63;;;11.25;;
55328;SDS011;41205;44.264;19.884;2023-06-24T06:25:23;13.45;;;12.13;;
55328;SDS011;41205;44.264;19.884;2023-06-24T06:27:48;12.73;;;11.35;;
55328;SDS011;41205;44.264;19.884;2023-06-24T06:30:14;16.92;;;12.65;;
55328;SDS011;41205;44.264;19.884;2023-06-24T06:32:40;13.40;;;10.98;;
55328;SDS011;41205;44.264;19.884;2023-06-24T06:35:06;14.50;;;13.00;;
55328;SDS011;41205;44.264;19.884;2023-06-24T06:37:33;15.30;;;11.70;;
55328;SDS011;41205;44.264;19.884;2023-06-24T06:39:59;15.07;;;13.55;;
55328;SDS011;41205;44.264;19.884;2023-06-24T06:42:24;15.52;;;13.93;;
55328;SDS011;41205;44.264;19.884;2023-06-24T06:44:50;17.85;;;13.05;;
55328;SDS011;41205;44.264;19.884;2023-06-24T06:47:16;16.88;;;14.35;;
55328;SDS011;41205;44.264;19.884;2023-06-24T06:49:41;15.77;;;14.18;;
55328;SDS011;41205;44.264;19.884;2023-06-24T06:52:07;16.63;;;14.40;;
55328;SDS011;41205;44.264;19.884;2023-06-24T06:54:33;17.77;;;14.63;;
55328;SDS011;41205;44.264;19.884;2023-06-24T06:57:02;16.63;;;14.93;;
55328;SDS011;41205;44.264;19.884;2023-06-24T06:59:29;19.17;;;17.27;;
55328;SDS011;41205;44.264;19.884;2023-06-24T07:01:55;21.98;;;19.67;;
55328;SDS011;41205;44.264;19.884;2023-06-24T07:04:21;21.67;;;19.23;;
55328;SDS011;41205;44.264;19.884;2023-06-24T07:06:47;21.35;;;19.27;;
55328;SDS011;41205;44.264;19.884;2023-06-24T07:09:13;21.75;;;19.65;;
55328;SDS011;41205;44.264;19.884;2023-06-24T07:11:40;19.80;;;17.80;;
55328;SDS011;41205;44.264;19.884;2023-06-24T07:14:06;19.92;;;17.92;;
55328;SDS011;41205;44.264;19.884;2023-06-24T07:16:31;21.60;;;19.58;;
55328;SDS011;41205;44.264;19.884;2023-06-24T07:18:57;21.92;;;19.63;;
55328;SDS011;41205;44.264;19.884;2023-06-24T07:21:23;19.48;;;17.52;;
55328;SDS011;41205;44.264;19.884;2023-06-24T07:23:49;21.65;;;19.70;;
55328;SDS011;41205;44.264;19.884;2023-06-24T07:26:14;22.17;;;20.17;;
55328;SDS011;41205;44.264;19.884;2023-06-24T07:28:40;20.48;;;18.48;;
55328;SDS011;41205;44.264;19.884;2023-06-24T07:31:06;20.35;;;18.42;;
55328;SDS011;41205;44.264;19.884;2023-06-24T07:33:31;22.73;;;18.90;;
55328;SDS011;41205;44.264;19.884;2023-06-24T07:35:57;22.15;;;20.02;;
55328;SDS011;41205;44.264;19.884;2023-06-24T07:38:23;22.13;;;20.13;;
55328;SDS011;41205;44.264;19.884;2023-06-24T07:40:48;21.20;;;19.20;;
55328;SDS011;41205;44.264;19.884;2023-06-24T07:43:14;20.10;;;18.00;;
55328;SDS011;41205;44.264;19.884;2023-06-24T07:45:40;21.35;;;19.00;;
55328;SDS011;41205;44.264;19.884;2023-06-24T07:48:06;22.60;;;20.35;;
55328;SDS011;41205;44.264;19.884;2023-06-24T07:50:35;19.65;;;17.60;;
55328;SDS011;41205;44.264;19.884;2023-06-24T07:53:01;21.92;;;19.80;;
55328;SDS011;41205;44.264;19.884;2023-06-24T07:55:27;21.30;;;19.10;;
55328;SDS011;41205;44.264;19.884;2023-06-24T07:57:53;21.38;;;19.40;;
55328;SDS011;41205;44.264;19.884;2023-06-24T08:00:19;20.35;;;17.75;;
55328;SDS011;41205;44.264;19.884;2023-06-24T08:02:44;21.92;;;17.13;;
55328;SDS011;41205;44.264;19.884;2023-06-24T08:05:10;17.45;;;15.68;;
55328;SDS011;41205;44.264;19.884;2023-06-24T08:07:37;18.35;;;16.27;;
55328;SDS011;41205;44.264;19.884;2023-06-24T08:10:03;19.48;;;17.77;;
55328;SDS011;41205;44.264;19.884;2023-06-24T08:12:29;18.67;;;16.98;;
55328;SDS011;41205;44.264;19.884;2023-06-24T08:14:55;21.88;;;19.50;;
55328;SDS011;41205;44.264;19.884;2023-06-24T08:17:20;22.25;;;18.58;;
55328;SDS011;41205;44.264;19.884;2023-06-24T08:19:46;21.90;;;19.90;;
55328;SDS011;41205;44.264;19.884;2023-06-24T08:22:12;21.40;;;19.35;;
55328;SDS011;41205;44.264;19.884;2023-06-24T08:24:39;20.58;;;18.67;;
55328;SDS011;41205;44.264;19.884;2023-06-24T08:27:05;18.23;;;16.42;;
55328;SDS011;41205;44.264;19.884;2023-06-24T08:29:31;18.90;;;16.90;;
55328;SDS011;41205;44.264;19.884;2023-06-24T08:31:56;18.33;;;16.42;;
55328;SDS011;41205;44.264;19.884;2023-06-24T08:34:22;17.52;;;15.88;;
55328;SDS011;41205;44.264;19.884;2023-06-24T08:36:48;18.08;;;16.10;;
55328;SDS011;41205;44.264;19.884;2023-06-24T08:39:13;15.55;;;14.15;;
55328;SDS011;41205;44.264;19.884;2023-06-24T08:41:39;14.95;;;13.45;;
55328;SDS011;41205;44.264;19.884;2023-06-24T08:44:05;18.92;;;14.98;;
55328;SDS011;41205;44.264;19.884;2023-06-24T08:46:30;17.55;;;15.00;;
55328;SDS011;41205;44.264;19.884;2023-06-24T08:49:42;17.27;;;14.98;;
55328;SDS011;41205;44.264;19.884;2023-06-24T08:51:49;16.33;;;13.82;;
55328;SDS011;41205;44.264;19.884;2023-06-24T08:54:25;14.93;;;13.40;;
55328;SDS011;41205;44.264;19.884;2023-06-24T08:56:52;18.95;;;16.88;;
55328;SDS011;41205;44.264;19.884;2023-06-24T08:59:18;16.13;;;14.43;;
55328;SDS011;41205;44.264;19.884;2023-06-24T09:01:48;18.05;;;14.63;;
55328;SDS011;41205;44.264;19.884;2023-06-24T09:04:14;15.73;;;14.23;;
55328;SDS011;41205;44.264;19.884;2023-06-24T09:06:40;17.50;;;13.98;;
55328;SDS011;41205;44.264;19.884;2023-06-24T09:09:16;15.02;;;13.48;;
55328;SDS011;41205;44.264;19.884;2023-06-24T09:11:52;17.20;;;13.25;;
55328;SDS011;41205;44.264;19.884;2023-06-24T09:14:26;17.98;;;13.38;;
55328;SDS011;41205;44.264;19.884;2023-06-24T09:16:54;14.95;;;13.35;;
55328;SDS011;41205;44.264;19.884;2023-06-24T09:19:26;15.63;;;13.90;;
55328;SDS011;41205;44.264;19.884;2023-06-24T09:22:04;14.35;;;12.85;;
55328;SDS011;41205;44.264;19.884;2023-06-24T09:24:31;17.63;;;13.77;;
55328;SDS011;41205;44.264;19.884;2023-06-24T09:27:02;17.60;;;14.18;;
55328;SDS011;41205;44.264;19.884;2023-06-24T09:29:31;17.05;;;13.75;;
55328;SDS011;41205;44.264;19.884;2023-06-24T09:31:57;14.75;;;13.35;;
55328;SDS011;41205;44.264;19.884;2023-06-24T09:34:25;17.08;;;14.32;;
55328;SDS011;41205;44.264;19.884;2023-06-24T09:36:52;25.83;;;18.00;;
55328;SDS011;41205;44.264;19.884;2023-06-24T09:39:22;16.15;;;14.55;;
55328;SDS011;41205;44.264;19.884;2023-06-24T09:41:58;17.08;;;14.73;;
55328;SDS011;41205;44.264;19.884;2023-06-24T09:44:25;16.48;;;14.85;;
55328;SDS011;41205;44.264;19.884;2023-06-24T09:46:52;16.92;;;15.18;;
55328;SDS011;41205;44.264;19.884;2023-06-24T09:49:18;20.08;;;14.90;;
55328;SDS011;41205;44.264;19.884;2023-06-24T09:51:45;18.88;;;14.35;;
55328;SDS011;41205;44.264;19.884;2023-06-24T09:54:13;17.33;;;14.85;;
55328;SDS011;41205;44.264;19.884;2023-06-24T09:56:40;15.55;;;13.68;;
55328;SDS011;41205;44.264;19.884;2023-06-24T09:59:11;16.45;;;14.85;;
55328;SDS011;41205;44.264;19.884;2023-06-24T10:01:39;15.25;;;13.75;;
55328;SDS011;41205;44.264;19.884;2023-06-24T10:04:06;20.65;;;16.23;;
55328;SDS011;41205;44.264;19.884;2023-06-24T10:06:33;17.33;;;15.73;;
55328;SDS011;41205;44.264;19.884;2023-06-24T10:09:00;17.17;;;15.35;;
55328;SDS011;41205;44.264;19.884;2023-06-24T10:11:26;16.17;;;14.57;;
55328;SDS011;41205;44.264;19.884;2023-06-24T10:13:52;17.25;;;14.95;;
55328;SDS011;41205;44.264;19.884;2023-06-24T10:16:19;17.77;;;14.80;;
55328;SDS011;41205;44.264;19.884;2023-06-24T10:18:45;16.60;;;14.82;;
55328;SDS011;41205;44.264;19.884;2023-06-24T10:21:11;16.48;;;14.85;;
55328;SDS011;41205;44.264;19.884;2023-06-24T10:23:41;17.45;;;15.65;;
55328;SDS011;41205;44.264;19.884;2023-06-24T10:26:29;16.73;;;14.80;;
55328;SDS011;41205;44.264;19.884;2023-06-24T10:29:08;16.30;;;14.75;;
55328;SDS011;41205;44.264;19.884;2023-06-24T10:36:59;15.45;;;14.02;;
55328;SDS011;41205;44.264;19.884;2023-06-24T10:45:12;15.75;;;14.20;;
55328;SDS011;41205;44.264;19.884;2023-06-24T10:50:10;14.95;;;13.45;;
55328;SDS011;41205;44.264;19.884;2023-06-24T10:52:44;14.35;;;13.00;;
55328;SDS011;41205;44.264;19.884;2023-06-24T10:55:16;19.00;;;13.60;;
55328;SDS011;41205;44.264;19.884;2023-06-24T10:57:43;14.40;;;13.00;;
55328;SDS011;41205;44.264;19.884;2023-06-24T11:00:09;15.60;;;13.68;;
55328;SDS011;41205;44.264;19.884;2023-06-24T11:02:36;15.88;;;13.48;;
55328;SDS011;41205;44.264;19.884;2023-06-24T11:05:02;14.50;;;12.85;;
55328;SDS011;41205;44.264;19.884;2023-06-24T11:07:29;15.52;;;12.85;;
55328;SDS011;41205;44.264;19.884;2023-06-24T11:10:00;13.85;;;12.55;;
55328;SDS011;41205;44.264;19.884;2023-06-24T11:12:31;12.40;;;11.15;;
55328;SDS011;41205;44.264;19.884;2023-06-24T11:14:59;14.15;;;12.63;;
55328;SDS011;41205;44.264;19.884;2023-06-24T11:17:51;14.00;;;12.23;;
55328;SDS011;41205;44.264;19.884;2023-06-24T11:20:17;14.80;;;13.30;;
55328;SDS011;41205;44.264;19.884;2023-06-24T11:22:43;14.15;;;11.35;;
55328;SDS011;41205;44.264;19.884;2023-06-24T11:25:19;13.90;;;12.38;;
55328;SDS011;41205;44.264;19.884;2023-06-24T11:27:46;13.95;;;12.45;;
55328;SDS011;41205;44.264;19.884;2023-06-24T11:30:12;12.82;;;11.50;;
55328;SDS011;41205;44.264;19.884;2023-06-24T11:32:39;12.95;;;11.68;;
55328;SDS011;41205;44.264;19.884;2023-06-24T11:35:07;13.23;;;11.93;;
55328;SDS011;41205;44.264;19.884;2023-06-24T11:37:35;12.68;;;11.50;;
55328;SDS011;41205;44.264;19.884;2023-06-24T11:40:01;14.57;;;13.02;;
55328;SDS011;41205;44.264;19.884;2023-06-24T11:42:37;28.55;;;24.95;;
55328;SDS011;41205;44.264;19.884;2023-06-24T11:45:05;13.18;;;11.88;;
55328;SDS011;41205;44.264;19.884;2023-06-24T11:47:35;12.80;;;11.48;;
55328;SDS011;41205;44.264;19.884;2023-06-24T11:50:03;14.23;;;11.38;;
55328;SDS011;41205;44.264;19.884;2023-06-24T11:52:43;13.15;;;11.25;;
55328;SDS011;41205;44.264;19.884;2023-06-24T11:57:46;11.82;;;10.63;;
55328;SDS011;41205;44.264;19.884;2023-06-24T12:00:14;15.00;;;10.15;;
55328;SDS011;41205;44.264;19.884;2023-06-24T12:02:40;18.63;;;11.18;;
55328;SDS011;41205;44.264;19.884;2023-06-24T12:05:06;13.18;;;11.32;;
55328;SDS011;41205;44.264;19.884;2023-06-24T12:07:31;13.73;;;11.30;;
55328;SDS011;41205;44.264;19.884;2023-06-24T12:09:57;14.57;;;13.02;;
55328;SDS011;41205;44.264;19.884;2023-06-24T12:12:23;11.20;;;10.02;;
55328;SDS011;41205;44.264;19.884;2023-06-24T12:14:48;12.40;;;10.60;;
55328;SDS011;41205;44.264;19.884;2023-06-24T12:17:14;12.57;;;11.38;;
55328;SDS011;41205;44.264;19.884;2023-06-24T12:19:40;14.52;;;11.07;;
55328;SDS011;41205;44.264;19.884;2023-06-24T12:22:07;13.45;;;11.20;;
55328;SDS011;41205;44.264;19.884;2023-06-24T12:24:32;14.52;;;11.77;;
55328;SDS011;41205;44.264;19.884;2023-06-24T12:26:58;15.20;;;12.65;;
55328;SDS011;41205;44.264;19.884;2023-06-24T12:29:24;13.20;;;11.90;;
55328;SDS011;41205;44.264;19.884;2023-06-24T12:31:49;13.75;;;12.27;;
55328;SDS011;41205;44.264;19.884;2023-06-24T12:34:15;14.13;;;12.80;;
55328;SDS011;41205;44.264;19.884;2023-06-24T12:36:41;15.93;;;11.77;;
55328;SDS011;41205;44.264;19.884;2023-06-24T12:39:06;13.95;;;12.43;;
55328;SDS011;41205;44.264;19.884;2023-06-24T12:41:32;14.88;;;13.40;;
55328;SDS011;41205;44.264;19.884;2023-06-24T12:43:58;18.13;;;16.33;;
55328;SDS011;41205;44.264;19.884;2023-06-24T12:46:24;17.73;;;16.00;;
55328;SDS011;41205;44.264;19.884;2023-06-24T12:48:49;19.92;;;17.85;;
55328;SDS011;41205;44.264;19.884;2023-06-24T12:51:15;19.90;;;17.98;;
55328;SDS011;41205;44.264;19.884;2023-06-24T12:53:41;24.52;;;18.63;;
55328;SDS011;41205;44.264;19.884;2023-06-24T12:56:06;22.52;;;18.27;;
55328;SDS011;41205;44.264;19.884;2023-06-24T12:58:33;20.75;;;18.70;;
55328;SDS011;41205;44.264;19.884;2023-06-24T13:00:59;23.60;;;20.98;;
55328;SDS011;41205;44.264;19.884;2023-06-24T13:03:25;24.05;;;21.65;;
55328;SDS011;41205;44.264;19.884;2023-06-24T13:05:51;22.95;;;20.65;;
55328;SDS011;41205;44.264;19.884;2023-06-24T13:08:16;23.45;;;20.65;;
55328;SDS011;41205;44.264;19.884;2023-06-24T13:10:42;24.60;;;21.83;;
55328;SDS011;41205;44.264;19.884;2023-06-24T13:13:08;24.42;;;21.55;;
55328;SDS011;41205;44.264;19.884;2023-06-24T13:15:34;23.67;;;21.48;;
55328;SDS011;41205;44.264;19.884;2023-06-24T13:17:59;21.42;;;19.35;;
55328;SDS011;41205;44.264;19.884;2023-06-24T13:20:26;21.50;;;19.30;;
55328;SDS011;41205;44.264;19.884;2023-06-24T13:22:52;23.70;;;21.25;;
55328;SDS011;41205;44.264;19.884;2023-06-24T13:25:18;22.17;;;19.77;;
55328;SDS011;41205;44.264;19.884;2023-06-24T13:27:44;20.10;;;18.15;;
55328;SDS011;41205;44.264;19.884;2023-06-24T13:30:10;19.90;;;17.83;;
55328;SDS011;41205;44.264;19.884;2023-06-24T13:32:36;20.35;;;17.92;;
55328;SDS011;41205;44.264;19.884;2023-06-24T13:35:02;19.55;;;17.58;;
55328;SDS011;41205;44.264;19.884;2023-06-24T13:37:29;18.48;;;16.73;;
55328;SDS011;41205;44.264;19.884;2023-06-24T13:39:55;17.55;;;15.88;;
55328;SDS011;41205;44.264;19.884;2023-06-24T13:42:21;16.33;;;14.75;;
55328;SDS011;41205;44.264;19.884;2023-06-24T13:44:46;17.67;;;15.98;;
55328;SDS011;41205;44.264;19.884;2023-06-24T13:47:12;16.60;;;15.00;;
55328;SDS011;41205;44.264;19.884;2023-06-24T13:49:38;16.25;;;14.68;;
55328;SDS011;41205;44.264;19.884;2023-06-24T13:52:04;17.15;;;15.45;;
55328;SDS011;41205;44.264;19.884;2023-06-24T13:54:30;15.75;;;14.25;;
55328;SDS011;41205;44.264;19.884;2023-06-24T13:56:58;14.32;;;12.98;;
55328;SDS011;41205;44.264;19.884;2023-06-24T13:59:23;14.65;;;13.20;;
55328;SDS011;41205;44.264;19.884;2023-06-24T14:01:49;14.27;;;12.88;;
55328;SDS011;41205;44.264;19.884;2023-06-24T14:04:15;14.35;;;12.68;;
55328;SDS011;41205;44.264;19.884;2023-06-24T14:06:40;13.52;;;12.05;;
55328;SDS011;41205;44.264;19.884;2023-06-24T14:09:08;14.73;;;12.65;;
55328;SDS011;41205;44.264;19.884;2023-06-24T14:11:34;15.70;;;11.43;;
55328;SDS011;41205;44.264;19.884;2023-06-24T14:13:59;12.02;;;10.95;;
55328;SDS011;41205;44.264;19.884;2023-06-24T14:16:25;12.35;;;11.15;;
55328;SDS011;41205;44.264;19.884;2023-06-24T14:18:51;11.93;;;10.60;;
55328;SDS011;41205;44.264;19.884;2023-06-24T14:21:16;11.25;;;10.13;;
55328;SDS011;41205;44.264;19.884;2023-06-24T14:23:42;11.43;;;10.20;;
55328;SDS011;41205;44.264;19.884;2023-06-24T14:26:08;9.85;;;8.77;;
55328;SDS011;41205;44.264;19.884;2023-06-24T14:28:34;10.30;;;9.20;;
55328;SDS011;41205;44.264;19.884;2023-06-24T14:30:59;10.30;;;9.02;;
55328;SDS011;41205;44.264;19.884;2023-06-24T14:33:25;10.25;;;9.13;;
55328;SDS011;41205;44.264;19.884;2023-06-24T14:35:51;10.45;;;8.98;;
55328;SDS011;41205;44.264;19.884;2023-06-24T14:38:16;9.10;;;8.20;;
55328;SDS011;41205;44.264;19.884;2023-06-24T14:40:42;9.48;;;8.50;;
55328;SDS011;41205;44.264;19.884;2023-06-24T14:43:08;10.32;;;9.15;;
55328;SDS011;41205;44.264;19.884;2023-06-24T14:45:33;9.70;;;8.80;;
55328;SDS011;41205;44.264;19.884;2023-06-24T14:47:59;9.48;;;8.57;;
55328;SDS011;41205;44.264;19.884;2023-06-24T14:50:25;9.57;;;8.32;;
55328;SDS011;41205;44.264;19.884;2023-06-24T14:52:51;8.75;;;7.53;;